sensor_id;sensor_type;location;lat;lon;timestamp;pressure;altitude;pressure_sealevel;temperature;humidity
13235;BME280;6683;48.506;9.050;2024-03-02T00:01:11;96988.94;;;7.24;61.83
13235;BME280;6683;48.506;9.050;2024-03-02T00:04:13;96984.69;;;7.23;61.97
13235;BME280;6683;48.506;9.050;2024-03-02T00:07:17;96991.13;;;7.21;62.14
13235;BME280;6683;48.506;9.050;2024-03-02T00:10:22;96987.91;;;7.19;61.98
13235;BME280;6683;48.506;9.050;2024-03-02T00:13:26;96980.41;;;7.16;61.60
13235;BME280;6683;48.506;9.050;2024-03-02T00:16:30;96985.03;;;7.14;61.96
13235;BME280;6683;48.506;9.050;2024-03-02T00:19:33;96994.09;;;7.11;62.02
13235;BME280;6683;48.506;9.050;2024-03-02T00:22:37;96991.47;;;7.11;62.10
13235;BME280;6683;48.506;9.050;2024-03-02T00:25:41;96990.69;;;7.11;62.40
13235;BME280;6683;48.506;9.050;2024-03-02T00:28:43;96984.41;;;7.12;62.17
13235;BME280;6683;48.506;9.050;2024-03-02T00:31:46;96987.84;;;7.12;62.28
13235;BME280;6683;48.506;9.050;2024-03-02T00:34:49;96992.69;;;7.15;62.55
13235;BME280;6683;48.506;9.050;2024-03-02T00:37:52;96991.72;;;7.16;62.36
13235;BME280;6683;48.506;9.050;2024-03-02T00:40:54;96992.31;;;7.18;62.13
13235;BME280;6683;48.506;9.050;2024-03-02T00:43:58;96993.16;;;7.19;62.16
13235;BME280;6683;48.506;9.050;2024-03-02T00:47:01;96986.72;;;7.21;62.44
13235;BME280;6683;48.506;9.050;2024-03-02T00:50:05;96991.94;;;7.21;62.30
13235;BME280;6683;48.506;9.050;2024-03-02T00:53:10;96988.31;;;7.22;62.41
13235;BME280;6683;48.506;9.050;2024-03-02T00:56:14;96989.53;;;7.26;62.37
13235;BME280;6683;48.506;9.050;2024-03-02T00:59:16;96988.34;;;7.29;62.57
13235;BME280;6683;48.506;9.050;2024-03-02T01:02:18;96988.34;;;7.29;62.55
13235;BME280;6683;48.506;9.050;2024-03-02T01:05:21;96990.97;;;7.29;62.24
13235;BME280;6683;48.506;9.050;2024-03-02T01:08:25;96983.31;;;7.28;62.54
13235;BME280;6683;48.506;9.050;2024-03-02T01:11:27;96983.09;;;7.29;62.34
13235;BME280;6683;48.506;9.050;2024-03-02T01:14:29;96980.25;;;7.31;62.56
13235;BME280;6683;48.506;9.050;2024-03-02T01:17:31;96980.88;;;7.33;62.74
13235;BME280;6683;48.506;9.050;2024-03-02T01:20:33;96980.88;;;7.33;62.69
13235;BME280;6683;48.506;9.050;2024-03-02T01:23:37;96981.91;;;7.32;62.75
13235;BME280;6683;48.506;9.050;2024-03-02T01:26:39;96982.09;;;7.30;62.38
13235;BME280;6683;48.506;9.050;2024-03-02T01:29:41;96978.06;;;7.28;62.35
13235;BME280;6683;48.506;9.050;2024-03-02T01:32:43;96977.59;;;7.24;62.41
13235;BME280;6683;48.506;9.050;2024-03-02T01:35:46;96975.38;;;7.21;62.47
13235;BME280;6683;48.506;9.050;2024-03-02T01:38:49;96977.78;;;7.16;62.37
13235;BME280;6683;48.506;9.050;2024-03-02T01:41:51;96982.97;;;7.09;62.55
13235;BME280;6683;48.506;9.050;2024-03-02T01:44:53;96982.78;;;7.04;62.25
13235;BME280;6683;48.506;9.050;2024-03-02T01:47:55;96974.66;;;6.99;62.41
13235;BME280;6683;48.506;9.050;2024-03-02T01:50:57;96977.06;;;6.94;62.23
13235;BME280;6683;48.506;9.050;2024-03-02T01:54:01;96977.19;;;6.86;62.08
13235;BME280;6683;48.506;9.050;2024-03-02T01:57:04;96970.31;;;6.79;62.20
13235;BME280;6683;48.506;9.050;2024-03-02T02:00:08;96965.84;;;6.73;62.71
13235;BME280;6683;48.506;9.050;2024-03-02T02:03:11;96974.28;;;6.68;62.56
13235;BME280;6683;48.506;9.050;2024-03-02T02:06:13;96970.41;;;6.64;62.56
13235;BME280;6683;48.506;9.050;2024-03-02T02:09:17;96969.19;;;6.60;62.40
13235;BME280;6683;48.506;9.050;2024-03-02T02:12:19;96962.34;;;6.59;62.79
13235;BME280;6683;48.506;9.050;2024-03-02T02:15:25;96966.94;;;6.57;62.27
13235;BME280;6683;48.506;9.050;2024-03-02T02:18:27;96970.75;;;6.55;62.44
13235;BME280;6683;48.506;9.050;2024-03-02T02:21:31;96969.13;;;6.54;62.52
13235;BME280;6683;48.506;9.050;2024-03-02T02:24:33;96974.56;;;6.52;62.68
13235;BME280;6683;48.506;9.050;2024-03-02T02:27:35;96967.69;;;6.51;62.67
13235;BME280;6683;48.506;9.050;2024-03-02T02:30:37;96969.69;;;6.49;62.71
13235;BME280;6683;48.506;9.050;2024-03-02T02:33:39;96968.09;;;6.48;62.85
13235;BME280;6683;48.506;9.050;2024-03-02T02:36:43;96959.59;;;6.46;62.33
13235;BME280;6683;48.506;9.050;2024-03-02T02:39:45;96949.34;;;6.44;62.68
13235;BME280;6683;48.506;9.050;2024-03-02T02:42:47;96958.38;;;6.42;62.66
13235;BME280;6683;48.506;9.050;2024-03-02T02:45:50;96949.28;;;6.38;62.52
13235;BME280;6683;48.506;9.050;2024-03-02T02:48:52;96947.03;;;6.35;62.44
13235;BME280;6683;48.506;9.050;2024-03-02T02:51:55;96933.09;;;6.34;62.95
13235;BME280;6683;48.506;9.050;2024-03-02T02:54:57;96945.59;;;6.32;62.76
13235;BME280;6683;48.506;9.050;2024-03-02T02:57:59;96947.41;;;6.32;62.87
13235;BME280;6683;48.506;9.050;2024-03-02T03:01:02;96942.53;;;6.29;62.48
13235;BME280;6683;48.506;9.050;2024-03-02T03:04:04;96941.09;;;6.26;62.40
13235;BME280;6683;48.506;9.050;2024-03-02T03:07:08;96948.53;;;6.23;62.62
13235;BME280;6683;48.506;9.050;2024-03-02T03:10:10;96945.69;;;6.18;62.56
13235;BME280;6683;48.506;9.050;2024-03-02T03:13:12;96944.00;;;6.10;62.12
13235;BME280;6683;48.506;9.050;2024-03-02T03:16:14;96954.44;;;6.04;62.02
13235;BME280;6683;48.506;9.050;2024-03-02T03:19:17;96956.78;;;5.99;62.16
13235;BME280;6683;48.506;9.050;2024-03-02T03:22:20;96950.88;;;5.90;61.94
13235;BME280;6683;48.506;9.050;2024-03-02T03:25:22;96956.69;;;5.86;62.15
13235;BME280;6683;48.506;9.050;2024-03-02T03:28:24;96958.81;;;5.82;62.07
13235;BME280;6683;48.506;9.050;2024-03-02T03:31:26;96954.16;;;5.78;62.08
13235;BME280;6683;48.506;9.050;2024-03-02T03:34:28;96953.91;;;5.73;62.05
13235;BME280;6683;48.506;9.050;2024-03-02T03:37:32;96951.00;;;5.67;62.13
13235;BME280;6683;48.506;9.050;2024-03-02T03:40:34;96955.63;;;5.65;62.36
13235;BME280;6683;48.506;9.050;2024-03-02T03:43:36;96956.00;;;5.62;62.43
13235;BME280;6683;48.506;9.050;2024-03-02T03:46:38;96955.75;;;5.57;62.00
13235;BME280;6683;48.506;9.050;2024-03-02T03:49:40;96959.72;;;5.53;62.13
13235;BME280;6683;48.506;9.050;2024-03-02T03:52:44;96961.28;;;5.48;62.23
13235;BME280;6683;48.506;9.050;2024-03-02T03:55:46;96960.03;;;5.44;62.32
13235;BME280;6683;48.506;9.050;2024-03-02T03:58:49;96955.78;;;5.43;62.28
13235;BME280;6683;48.506;9.050;2024-03-02T04:01:52;96966.81;;;5.38;62.81
13235;BME280;6683;48.506;9.050;2024-03-02T04:04:54;96967.38;;;5.34;61.91
13235;BME280;6683;48.506;9.050;2024-03-02T04:07:57;96960.69;;;5.31;62.28
13235;BME280;6683;48.506;9.050;2024-03-02T04:10:59;96952.38;;;5.28;63.03
13235;BME280;6683;48.506;9.050;2024-03-02T04:14:03;96958.81;;;5.25;62.30
13235;BME280;6683;48.506;9.050;2024-03-02T04:17:06;96967.03;;;5.22;61.91
13235;BME280;6683;48.506;9.050;2024-03-02T04:20:10;96964.78;;;5.19;62.28
13235;BME280;6683;48.506;9.050;2024-03-02T04:23:14;96970.19;;;5.18;62.73
13235;BME280;6683;48.506;9.050;2024-03-02T04:26:16;96959.91;;;5.16;62.40
13235;BME280;6683;48.506;9.050;2024-03-02T04:29:22;96964.94;;;5.18;62.43
13235;BME280;6683;48.506;9.050;2024-03-02T04:32:24;96959.72;;;5.18;62.53
13235;BME280;6683;48.506;9.050;2024-03-02T04:35:26;96967.41;;;5.19;62.88
13235;BME280;6683;48.506;9.050;2024-03-02T04:38:31;96969.81;;;5.21;62.71
13235;BME280;6683;48.506;9.050;2024-03-02T04:41:33;96958.34;;;5.22;62.36
13235;BME280;6683;48.506;9.050;2024-03-02T04:44:35;96959.81;;;5.24;63.05
13235;BME280;6683;48.506;9.050;2024-03-02T04:47:37;96965.66;;;5.26;62.89
13235;BME280;6683;48.506;9.050;2024-03-02T04:50:39;96961.06;;;5.28;63.00
13235;BME280;6683;48.506;9.050;2024-03-02T04:53:43;96961.88;;;5.29;63.02
13235;BME280;6683;48.506;9.050;2024-03-02T04:56:45;96964.28;;;5.30;62.82
13235;BME280;6683;48.506;9.050;2024-03-02T04:59:50;96974.59;;;5.32;62.75
13235;BME280;6683;48.506;9.050;2024-03-02T05:02:52;96968.75;;;5.30;62.47
13235;BME280;6683;48.506;9.050;2024-03-02T05:05:54;96974.13;;;5.28;62.75
13235;BME280;6683;48.506;9.050;2024-03-02T05:08:58;96968.47;;;5.25;62.76
13235;BME280;6683;48.506;9.050;2024-03-02T05:12:00;96967.84;;;5.23;62.53
13235;BME280;6683;48.506;9.050;2024-03-02T05:15:29;96973.63;;;5.18;62.27
13235;BME280;6683;48.506;9.050;2024-03-02T05:18:32;96972.34;;;5.14;62.59
13235;BME280;6683;48.506;9.050;2024-03-02T05:21:34;96973.53;;;5.12;62.57
13235;BME280;6683;48.506;9.050;2024-03-02T05:24:38;96971.72;;;5.12;62.59
13235;BME280;6683;48.506;9.050;2024-03-02T05:27:40;96979.38;;;5.14;62.54
13235;BME280;6683;48.506;9.050;2024-03-02T05:30:42;96979.56;;;5.12;62.28
13235;BME280;6683;48.506;9.050;2024-03-02T05:33:45;96976.69;;;5.07;62.98
13235;BME280;6683;48.506;9.050;2024-03-02T05:36:47;96984.28;;;5.02;62.40
13235;BME280;6683;48.506;9.050;2024-03-02T05:39:50;96987.06;;;5.01;63.03
13235;BME280;6683;48.506;9.050;2024-03-02T05:42:52;96995.47;;;4.96;62.76
13235;BME280;6683;48.506;9.050;2024-03-02T05:45:54;96996.81;;;4.92;63.09
13235;BME280;6683;48.506;9.050;2024-03-02T05:48:57;96992.56;;;4.91;63.70
13235;BME280;6683;48.506;9.050;2024-03-02T05:51:59;96997.59;;;4.93;63.08
13235;BME280;6683;48.506;9.050;2024-03-02T05:55:03;96996.63;;;4.94;63.60
13235;BME280;6683;48.506;9.050;2024-03-02T05:58:05;96992.22;;;4.94;63.69
13235;BME280;6683;48.506;9.050;2024-03-02T06:01:23;96992.84;;;4.96;62.74
13235;BME280;6683;48.506;9.050;2024-03-02T06:04:29;96986.59;;;4.97;63.05
13235;BME280;6683;48.506;9.050;2024-03-02T06:07:31;96989.84;;;4.99;63.16
13235;BME280;6683;48.506;9.050;2024-03-02T06:10:34;96986.25;;;5.00;62.93
13235;BME280;6683;48.506;9.050;2024-03-02T06:13:36;96993.91;;;5.02;62.94
13235;BME280;6683;48.506;9.050;2024-03-02T06:16:38;96995.56;;;5.03;62.96
13235;BME280;6683;48.506;9.050;2024-03-02T06:19:40;96996.34;;;5.03;63.16
13235;BME280;6683;48.506;9.050;2024-03-02T06:22:42;97011.25;;;5.03;63.50
13235;BME280;6683;48.506;9.050;2024-03-02T06:25:46;97018.06;;;5.04;63.12
13235;BME280;6683;48.506;9.050;2024-03-02T06:28:48;97019.88;;;5.03;63.49
13235;BME280;6683;48.506;9.050;2024-03-02T06:31:50;97018.25;;;5.02;63.57
13235;BME280;6683;48.506;9.050;2024-03-02T06:34:52;97017.25;;;5.03;63.54
13235;BME280;6683;48.506;9.050;2024-03-02T06:37:54;97022.50;;;5.03;63.34
13235;BME280;6683;48.506;9.050;2024-03-02T06:40:58;97026.75;;;5.04;63.86
13235;BME280;6683;48.506;9.050;2024-03-02T06:44:00;97025.09;;;5.03;63.46
13235;BME280;6683;48.506;9.050;2024-03-02T06:47:02;97026.75;;;5.04;63.62
13235;BME280;6683;48.506;9.050;2024-03-02T06:50:05;97027.38;;;5.06;63.29
13235;BME280;6683;48.506;9.050;2024-03-02T06:53:07;97028.81;;;5.09;62.85
13235;BME280;6683;48.506;9.050;2024-03-02T06:56:11;97023.41;;;5.10;63.10
13235;BME280;6683;48.506;9.050;2024-03-02T06:59:13;97014.38;;;5.13;63.53
13235;BME280;6683;48.506;9.050;2024-03-02T07:02:15;97005.72;;;5.12;63.70
13235;BME280;6683;48.506;9.050;2024-03-02T07:05:17;97009.94;;;5.13;63.56
13235;BME280;6683;48.506;9.050;2024-03-02T07:08:19;97016.81;;;5.14;63.37
13235;BME280;6683;48.506;9.050;2024-03-02T07:11:23;97013.22;;;5.15;63.27
13235;BME280;6683;48.506;9.050;2024-03-02T07:14:25;97013.38;;;5.14;63.61
13235;BME280;6683;48.506;9.050;2024-03-02T07:17:47;97023.50;;;5.17;64.06
13235;BME280;6683;48.506;9.050;2024-03-02T07:20:49;97030.63;;;5.23;63.86
13235;BME280;6683;48.506;9.050;2024-03-02T07:23:51;97030.84;;;5.28;63.24
13235;BME280;6683;48.506;9.050;2024-03-02T07:26:54;97027.28;;;5.29;63.83
13235;BME280;6683;48.506;9.050;2024-03-02T07:29:56;97017.25;;;5.32;63.47
13235;BME280;6683;48.506;9.050;2024-03-02T07:32:58;97024.13;;;5.33;63.91
13235;BME280;6683;48.506;9.050;2024-03-02T07:36:01;97014.28;;;5.35;63.93
13235;BME280;6683;48.506;9.050;2024-03-02T07:39:03;97018.50;;;5.36;63.84
13235;BME280;6683;48.506;9.050;2024-03-02T07:42:07;97019.13;;;5.38;64.11
13235;BME280;6683;48.506;9.050;2024-03-02T07:45:09;97016.16;;;5.41;64.02
13235;BME280;6683;48.506;9.050;2024-03-02T07:48:11;97017.97;;;5.41;64.08
13235;BME280;6683;48.506;9.050;2024-03-02T07:51:14;97016.78;;;5.43;63.98
13235;BME280;6683;48.506;9.050;2024-03-02T07:54:16;97015.44;;;5.47;63.54
13235;BME280;6683;48.506;9.050;2024-03-02T07:57:19;97010.63;;;5.51;63.59
13235;BME280;6683;48.506;9.050;2024-03-02T08:00:21;97014.34;;;5.56;63.79
13235;BME280;6683;48.506;9.050;2024-03-02T08:03:24;97014.75;;;5.60;64.02
13235;BME280;6683;48.506;9.050;2024-03-02T08:06:27;97021.44;;;5.62;63.37
13235;BME280;6683;48.506;9.050;2024-03-02T08:09:29;97016.44;;;5.67;63.54
13235;BME280;6683;48.506;9.050;2024-03-02T08:12:32;97011.06;;;5.69;63.46
13235;BME280;6683;48.506;9.050;2024-03-02T08:15:34;97014.09;;;5.73;64.28
13235;BME280;6683;48.506;9.050;2024-03-02T08:18:37;97024.03;;;5.77;63.97
13235;BME280;6683;48.506;9.050;2024-03-02T08:21:39;97023.47;;;5.82;64.36
13235;BME280;6683;48.506;9.050;2024-03-02T08:24:41;97015.06;;;5.86;63.88
13235;BME280;6683;48.506;9.050;2024-03-02T08:27:44;97011.66;;;5.86;63.69
13235;BME280;6683;48.506;9.050;2024-03-02T08:30:46;97016.72;;;5.87;64.30
13235;BME280;6683;48.506;9.050;2024-03-02T08:33:48;97013.72;;;5.90;63.93
13235;BME280;6683;48.506;9.050;2024-03-02T08:36:50;97017.13;;;5.91;63.99
13235;BME280;6683;48.506;9.050;2024-03-02T08:39:52;97019.22;;;5.95;64.18
13235;BME280;6683;48.506;9.050;2024-03-02T08:42:56;97016.66;;;6.02;64.39
13235;BME280;6683;48.506;9.050;2024-03-02T08:45:58;97030.44;;;6.10;64.53
13235;BME280;6683;48.506;9.050;2024-03-02T08:49:00;97032.75;;;6.20;64.37
13235;BME280;6683;48.506;9.050;2024-03-02T08:52:03;97030.66;;;6.30;64.76
13235;BME280;6683;48.506;9.050;2024-03-02T08:55:06;97023.50;;;6.45;64.80
13235;BME280;6683;48.506;9.050;2024-03-02T08:58:10;97016.72;;;6.57;64.48
13235;BME280;6683;48.506;9.050;2024-03-02T09:01:12;96997.88;;;6.68;64.44
13235;BME280;6683;48.506;9.050;2024-03-02T09:04:14;96997.81;;;6.89;64.93
13235;BME280;6683;48.506;9.050;2024-03-02T09:07:17;96993.03;;;7.40;64.47
13235;BME280;6683;48.506;9.050;2024-03-02T09:10:19;96992.22;;;8.00;63.29
13235;BME280;6683;48.506;9.050;2024-03-02T09:13:23;96985.81;;;8.55;62.54
13235;BME280;6683;48.506;9.050;2024-03-02T09:16:25;96973.38;;;9.08;62.15
13235;BME280;6683;48.506;9.050;2024-03-02T09:19:31;96971.56;;;9.65;61.84
13235;BME280;6683;48.506;9.050;2024-03-02T09:22:33;96975.47;;;10.25;61.23
13235;BME280;6683;48.506;9.050;2024-03-02T09:25:35;96960.66;;;10.74;61.10
13235;BME280;6683;48.506;9.050;2024-03-02T09:28:43;96954.91;;;11.19;61.01
13235;BME280;6683;48.506;9.050;2024-03-02T09:31:45;96951.00;;;11.58;60.59
13235;BME280;6683;48.506;9.050;2024-03-02T09:34:47;96944.03;;;11.93;60.78
13235;BME280;6683;48.506;9.050;2024-03-02T09:37:50;96948.28;;;12.24;60.19
13235;BME280;6683;48.506;9.050;2024-03-02T09:40:52;96940.81;;;12.44;59.90
13235;BME280;6683;48.506;9.050;2024-03-02T09:43:56;96931.75;;;12.63;60.29
13235;BME280;6683;48.506;9.050;2024-03-02T09:46:58;96928.16;;;12.93;60.41
13235;BME280;6683;48.506;9.050;2024-03-02T09:50:00;96933.69;;;13.26;60.47
13235;BME280;6683;48.506;9.050;2024-03-02T09:53:02;96930.91;;;13.60;60.05
13235;BME280;6683;48.506;9.050;2024-03-02T09:56:05;96931.13;;;13.99;59.89
13235;BME280;6683;48.506;9.050;2024-03-02T09:59:09;96920.72;;;14.42;58.93
13235;BME280;6683;48.506;9.050;2024-03-02T10:02:11;96915.38;;;14.75;58.87
13235;BME280;6683;48.506;9.050;2024-03-02T10:05:13;96916.91;;;14.88;58.70
13235;BME280;6683;48.506;9.050;2024-03-02T10:08:24;96909.44;;;15.06;58.61
13235;BME280;6683;48.506;9.050;2024-03-02T10:11:28;96906.31;;;15.31;58.61
13235;BME280;6683;48.506;9.050;2024-03-02T10:14:33;96902.13;;;15.57;58.30
13235;BME280;6683;48.506;9.050;2024-03-02T10:17:35;96902.13;;;15.83;58.28
13235;BME280;6683;48.506;9.050;2024-03-02T10:20:38;96897.88;;;16.09;57.79
13235;BME280;6683;48.506;9.050;2024-03-02T10:23:40;96890.66;;;16.36;57.43
13235;BME280;6683;48.506;9.050;2024-03-02T10:26:42;96891.41;;;16.63;56.78
13235;BME280;6683;48.506;9.050;2024-03-02T10:29:47;96878.03;;;16.95;56.57
13235;BME280;6683;48.506;9.050;2024-03-02T10:32:50;96876.03;;;17.27;55.44
13235;BME280;6683;48.506;9.050;2024-03-02T10:35:52;96878.03;;;17.52;55.07
13235;BME280;6683;48.506;9.050;2024-03-02T10:38:56;96870.34;;;17.71;54.16
13235;BME280;6683;48.506;9.050;2024-03-02T10:42:00;96862.09;;;17.82;54.09
13235;BME280;6683;48.506;9.050;2024-03-02T10:45:07;96863.19;;;18.06;53.84
13235;BME280;6683;48.506;9.050;2024-03-02T10:48:10;96847.97;;;18.32;53.55
13235;BME280;6683;48.506;9.050;2024-03-02T10:51:12;96844.25;;;18.53;52.97
13235;BME280;6683;48.506;9.050;2024-03-02T10:54:14;96840.47;;;18.69;52.40
13235;BME280;6683;48.506;9.050;2024-03-02T10:57:17;96827.59;;;18.86;52.34
13235;BME280;6683;48.506;9.050;2024-03-02T11:00:25;96810.97;;;19.04;51.86
13235;BME280;6683;48.506;9.050;2024-03-02T11:03:34;96820.75;;;19.29;51.47
13235;BME280;6683;48.506;9.050;2024-03-02T11:06:38;96819.31;;;19.52;51.37
13235;BME280;6683;48.506;9.050;2024-03-02T11:09:47;96817.53;;;19.81;50.65
13235;BME280;6683;48.506;9.050;2024-03-02T11:12:59;96805.81;;;20.11;50.57
13235;BME280;6683;48.506;9.050;2024-03-02T11:16:19;96804.81;;;20.35;49.63
13235;BME280;6683;48.506;9.050;2024-03-02T11:19:27;96811.00;;;20.59;49.07
13235;BME280;6683;48.506;9.050;2024-03-02T11:22:30;96796.53;;;20.84;48.75
13235;BME280;6683;48.506;9.050;2024-03-02T11:25:33;96782.06;;;21.09;48.13
13235;BME280;6683;48.506;9.050;2024-03-02T11:28:35;96778.38;;;21.23;47.78
13235;BME280;6683;48.506;9.050;2024-03-02T11:31:59;96773.31;;;21.40;47.81
13235;BME280;6683;48.506;9.050;2024-03-02T11:35:03;96766.91;;;21.55;47.00
13235;BME280;6683;48.506;9.050;2024-03-02T11:38:07;96772.88;;;21.71;46.68
13235;BME280;6683;48.506;9.050;2024-03-02T11:41:09;96759.09;;;21.96;46.70
13235;BME280;6683;48.506;9.050;2024-03-02T11:44:12;96759.34;;;22.26;46.12
13235;BME280;6683;48.506;9.050;2024-03-02T11:47:16;96745.38;;;22.57;45.02
13235;BME280;6683;48.506;9.050;2024-03-02T11:50:29;96746.28;;;22.66;44.53
13235;BME280;6683;48.506;9.050;2024-03-02T11:53:31;96733.00;;;22.56;44.31
13235;BME280;6683;48.506;9.050;2024-03-02T11:56:35;96727.13;;;22.40;44.58
13235;BME280;6683;48.506;9.050;2024-03-02T11:59:37;96724.09;;;22.14;44.16
13235;BME280;6683;48.506;9.050;2024-03-02T12:02:41;96719.97;;;21.90;44.59
13235;BME280;6683;48.506;9.050;2024-03-02T12:05:49;96716.53;;;21.66;44.83
13235;BME280;6683;48.506;9.050;2024-03-02T12:08:53;96711.50;;;21.45;44.87
13235;BME280;6683;48.506;9.050;2024-03-02T12:12:03;96715.84;;;21.23;44.91
13235;BME280;6683;48.506;9.050;2024-03-02T12:15:07;96709.53;;;21.32;44.98
13235;BME280;6683;48.506;9.050;2024-03-02T12:18:12;96703.56;;;21.73;43.86
13235;BME280;6683;48.506;9.050;2024-03-02T12:21:14;96699.59;;;22.16;43.02
13235;BME280;6683;48.506;9.050;2024-03-02T12:24:16;96692.47;;;22.52;42.40
13235;BME280;6683;48.506;9.050;2024-03-02T12:27:18;96691.47;;;22.89;41.77
13235;BME280;6683;48.506;9.050;2024-03-02T12:30:22;96690.44;;;23.12;41.05
13235;BME280;6683;48.506;9.050;2024-03-02T12:33:26;96680.88;;;23.20;40.50
13235;BME280;6683;48.506;9.050;2024-03-02T12:36:30;96671.69;;;23.34;40.24
13235;BME280;6683;48.506;9.050;2024-03-02T12:39:32;96671.19;;;23.54;39.58
13235;BME280;6683;48.506;9.050;2024-03-02T12:42:34;96668.25;;;23.64;39.03
13235;BME280;6683;48.506;9.050;2024-03-02T12:45:37;96664.59;;;23.38;38.99
13235;BME280;6683;48.506;9.050;2024-03-02T12:48:40;96663.28;;;22.86;39.02
13235;BME280;6683;48.506;9.050;2024-03-02T12:51:43;96655.22;;;22.32;39.82
13235;BME280;6683;48.506;9.050;2024-03-02T12:54:48;96645.16;;;21.78;40.31
13235;BME280;6683;48.506;9.050;2024-03-02T12:57:50;96649.13;;;21.35;40.59
13235;BME280;6683;48.506;9.050;2024-03-02T13:01:06;96647.50;;;20.97;41.05
13235;BME280;6683;48.506;9.050;2024-03-02T13:04:11;96653.19;;;20.71;41.43
13235;BME280;6683;48.506;9.050;2024-03-02T13:07:13;96646.00;;;20.48;41.90
13235;BME280;6683;48.506;9.050;2024-03-02T13:10:17;96641.47;;;20.25;41.90
13235;BME280;6683;48.506;9.050;2024-03-02T13:13:19;96652.81;;;20.12;42.07
13235;BME280;6683;48.506;9.050;2024-03-02T13:16:21;96652.41;;;20.00;42.26
13235;BME280;6683;48.506;9.050;2024-03-02T13:19:24;96645.03;;;19.87;42.41
13235;BME280;6683;48.506;9.050;2024-03-02T13:22:29;96643.28;;;19.77;42.40
13235;BME280;6683;48.506;9.050;2024-03-02T13:25:31;96643.84;;;19.69;42.43
13235;BME280;6683;48.506;9.050;2024-03-02T13:28:34;96641.28;;;19.59;42.37
13235;BME280;6683;48.506;9.050;2024-03-02T13:31:36;96644.56;;;19.51;42.68
13235;BME280;6683;48.506;9.050;2024-03-02T13:34:40;96644.13;;;19.39;42.57
13235;BME280;6683;48.506;9.050;2024-03-02T13:37:42;96638.25;;;19.32;42.68
13235;BME280;6683;48.506;9.050;2024-03-02T13:40:44;96640.72;;;19.24;42.83
13235;BME280;6683;48.506;9.050;2024-03-02T13:43:46;96632.47;;;19.20;42.87
13235;BME280;6683;48.506;9.050;2024-03-02T13:46:48;96623.69;;;19.14;42.70
13235;BME280;6683;48.506;9.050;2024-03-02T13:49:53;96620.25;;;19.09;42.75
13235;BME280;6683;48.506;9.050;2024-03-02T13:52:56;96623.78;;;19.04;42.89
13235;BME280;6683;48.506;9.050;2024-03-02T13:55:58;96625.13;;;19.02;42.94
13235;BME280;6683;48.506;9.050;2024-03-02T13:59:00;96612.00;;;19.00;42.98
13235;BME280;6683;48.506;9.050;2024-03-02T14:02:03;96611.50;;;18.98;42.80
13235;BME280;6683;48.506;9.050;2024-03-02T14:05:07;96608.03;;;18.98;42.82
13235;BME280;6683;48.506;9.050;2024-03-02T14:08:11;96609.63;;;18.99;42.88
13235;BME280;6683;48.506;9.050;2024-03-02T14:11:14;96601.06;;;19.02;42.84
13235;BME280;6683;48.506;9.050;2024-03-02T14:14:17;96595.13;;;19.05;42.82
13235;BME280;6683;48.506;9.050;2024-03-02T14:17:19;96591.41;;;19.06;42.62
13235;BME280;6683;48.506;9.050;2024-03-02T14:20:23;96590.31;;;19.07;42.55
13235;BME280;6683;48.506;9.050;2024-03-02T14:23:25;96596.97;;;19.09;42.29
13235;BME280;6683;48.506;9.050;2024-03-02T14:26:28;96593.50;;;19.09;42.28
13235;BME280;6683;48.506;9.050;2024-03-02T14:29:31;96599.13;;;19.07;42.28
13235;BME280;6683;48.506;9.050;2024-03-02T14:32:37;96592.22;;;19.06;42.12
13235;BME280;6683;48.506;9.050;2024-03-02T14:35:40;96582.06;;;19.03;42.12
13235;BME280;6683;48.506;9.050;2024-03-02T14:38:42;96585.25;;;19.05;41.95
13235;BME280;6683;48.506;9.050;2024-03-02T14:41:44;96585.53;;;19.04;41.86
13235;BME280;6683;48.506;9.050;2024-03-02T14:44:46;96569.50;;;19.04;41.75
13235;BME280;6683;48.506;9.050;2024-03-02T14:47:49;96569.50;;;19.04;41.59
13235;BME280;6683;48.506;9.050;2024-03-02T14:50:52;96578.31;;;19.04;41.38
13235;BME280;6683;48.506;9.050;2024-03-02T14:53:54;96571.06;;;19.05;41.36
13235;BME280;6683;48.506;9.050;2024-03-02T14:56:56;96557.69;;;19.05;41.20
13235;BME280;6683;48.506;9.050;2024-03-02T14:59:58;96565.50;;;19.01;41.38
13235;BME280;6683;48.506;9.050;2024-03-02T15:03:00;96560.16;;;18.96;41.16
13235;BME280;6683;48.506;9.050;2024-03-02T15:06:06;96558.09;;;18.88;41.06
13235;BME280;6683;48.506;9.050;2024-03-02T15:09:08;96560.53;;;18.85;41.03
13235;BME280;6683;48.506;9.050;2024-03-02T15:12:11;96553.34;;;18.80;40.81
13235;BME280;6683;48.506;9.050;2024-03-02T15:15:15;96554.97;;;18.76;40.83
13235;BME280;6683;48.506;9.050;2024-03-02T15:18:17;96548.31;;;18.74;40.77
13235;BME280;6683;48.506;9.050;2024-03-02T15:21:21;96545.41;;;18.70;40.76
13235;BME280;6683;48.506;9.050;2024-03-02T15:24:23;96537.91;;;18.67;40.64
13235;BME280;6683;48.506;9.050;2024-03-02T15:27:26;96529.38;;;18.65;40.68
13235;BME280;6683;48.506;9.050;2024-03-02T15:30:28;96532.34;;;18.64;40.61
13235;BME280;6683;48.506;9.050;2024-03-02T15:33:30;96529.16;;;18.62;40.73
13235;BME280;6683;48.506;9.050;2024-03-02T15:36:34;96536.66;;;18.60;40.49
13235;BME280;6683;48.506;9.050;2024-03-02T15:39:36;96530.78;;;18.58;40.60
13235;BME280;6683;48.506;9.050;2024-03-02T15:42:38;96528.66;;;18.55;40.48
13235;BME280;6683;48.506;9.050;2024-03-02T15:45:40;96531.09;;;18.51;40.21
13235;BME280;6683;48.506;9.050;2024-03-02T15:48:42;96525.22;;;18.49;40.00
13235;BME280;6683;48.506;9.050;2024-03-02T15:51:46;96530.34;;;18.46;39.59
13235;BME280;6683;48.506;9.050;2024-03-02T15:54:48;96527.66;;;18.41;39.50
13235;BME280;6683;48.506;9.050;2024-03-02T15:57:50;96529.28;;;18.36;39.25
13235;BME280;6683;48.506;9.050;2024-03-02T16:00:52;96530.66;;;18.29;38.92
13235;BME280;6683;48.506;9.050;2024-03-02T16:03:54;96537.09;;;18.23;38.82
13235;BME280;6683;48.506;9.050;2024-03-02T16:06:58;96537.13;;;18.18;38.80
13235;BME280;6683;48.506;9.050;2024-03-02T16:10:00;96539.03;;;18.12;38.49
13235;BME280;6683;48.506;9.050;2024-03-02T16:13:07;96536.38;;;18.07;38.62
13235;BME280;6683;48.506;9.050;2024-03-02T16:16:10;96543.63;;;18.02;38.45
13235;BME280;6683;48.506;9.050;2024-03-02T16:19:12;96540.94;;;17.97;38.28
13235;BME280;6683;48.506;9.050;2024-03-02T16:22:16;96543.91;;;17.90;38.21
13235;BME280;6683;48.506;9.050;2024-03-02T16:25:18;96544.72;;;17.86;38.33
13235;BME280;6683;48.506;9.050;2024-03-02T16:28:20;96540.75;;;17.78;38.39
13235;BME280;6683;48.506;9.050;2024-03-02T16:31:22;96546.66;;;17.70;38.57